createdAt,value
2019-02-18T00:00:36.755Z,99.90
2019-02-18T00:03:05.450Z,99.90
2019-02-18T00:05:33.850Z,99.90
2019-02-18T00:08:02.279Z,99.90
2019-02-18T00:10:30.707Z,99.90
2019-02-18T00:12:59.136Z,99.90
2019-02-18T00:15:27.563Z,99.90
2019-02-18T00:17:55.981Z,99.90
2019-02-18T00:20:24.409Z,99.90
2019-02-18T00:22:53.120Z,99.90
2019-02-18T00:25:21.551Z,99.90
2019-02-18T00:27:49.965Z,99.90
2019-02-18T00:30:18.469Z,99.90
2019-02-18T00:32:46.884Z,99.90
2019-02-18T00:35:15.311Z,99.90
2019-02-18T00:37:43.737Z,99.90
2019-02-18T00:40:12.163Z,99.90
2019-02-18T00:42:40.567Z,99.90
2019-02-18T00:45:12.827Z,99.90
2019-02-18T00:47:41.242Z,99.90
2019-02-18T00:50:10.603Z,99.90
2019-02-18T00:52:39.029Z,99.90
2019-02-18T00:55:08.296Z,99.90
2019-02-18T00:57:36.733Z,99.90
2019-02-18T01:00:08.874Z,99.90
2019-02-18T01:02:37.296Z,99.90
2019-02-18T01:05:07.064Z,99.90
2019-02-18T01:07:35.494Z,99.90
2019-02-18T01:10:05.754Z,99.90
2019-02-18T01:12:34.180Z,99.90
2019-02-18T01:15:02.762Z,99.90
2019-02-18T01:17:31.196Z,99.90
2019-02-18T01:19:59.642Z,99.90
2019-02-18T01:22:28.055Z,99.90
2019-02-18T01:24:56.499Z,99.90
2019-02-18T01:27:24.913Z,99.90
2019-02-18T01:29:53.339Z,99.90
2019-02-18T01:32:21.765Z,99.90
2019-02-18T01:34:50.196Z,99.90
2019-02-18T01:37:18.615Z,99.90
2019-02-18T01:39:47.052Z,99.90
2019-02-18T01:42:15.484Z,99.90
2019-02-18T01:44:43.892Z,99.90
2019-02-18T01:47:12.324Z,99.90
2019-02-18T01:49:40.759Z,99.90
2019-02-18T01:52:09.339Z,99.90
2019-02-18T01:54:37.796Z,99.90
2019-02-18T01:57:06.199Z,99.90
2019-02-18T01:59:34.619Z,99.90
2019-02-18T02:02:03.063Z,99.90
2019-02-18T02:04:32.411Z,99.90
2019-02-18T02:07:00.839Z,99.90
2019-02-18T02:09:29.311Z,99.90
2019-02-18T02:11:57.760Z,99.90
2019-02-18T02:14:26.168Z,99.90
2019-02-18T02:16:54.670Z,99.90
2019-02-18T02:19:23.106Z,99.90
2019-02-18T02:21:51.536Z,99.90
2019-02-18T02:24:19.955Z,99.90
2019-02-18T02:26:48.378Z,99.90
2019-02-18T02:29:16.795Z,99.90
2019-02-18T02:31:45.246Z,99.90
2019-02-18T02:34:13.701Z,99.90
2019-02-18T02:36:42.120Z,99.90
2019-02-18T02:39:10.540Z,99.90
2019-02-18T02:41:38.967Z,99.90
2019-02-18T02:44:07.400Z,99.90
2019-02-18T02:46:35.854Z,99.90
2019-02-18T02:49:04.272Z,99.90
2019-02-18T02:51:32.703Z,99.90
2019-02-18T02:54:01.368Z,99.90
2019-02-18T02:56:29.813Z,99.90
2019-02-18T02:58:58.231Z,99.90
2019-02-18T03:01:26.672Z,99.90
2019-02-18T03:03:55.097Z,99.90
2019-02-18T03:06:23.588Z,99.90
2019-02-18T03:08:52.031Z,99.90
2019-02-18T03:11:20.487Z,99.90
2019-02-18T03:13:48.932Z,99.90
2019-02-18T03:16:20.968Z,99.90
2019-02-18T03:18:49.402Z,99.90
2019-02-18T03:21:17.824Z,99.90
2019-02-18T03:23:46.259Z,99.90
2019-02-18T03:26:14.672Z,99.90
2019-02-18T03:29:05.471Z,99.90
2019-02-18T03:31:35.819Z,99.90
2019-02-18T03:34:08.666Z,99.90
2019-02-18T03:36:37.094Z,99.90
2019-02-18T03:39:06.563Z,99.90
2019-02-18T03:41:35.012Z,99.90
2019-02-18T03:44:06.544Z,99.90
2019-02-18T03:46:34.977Z,99.90
2019-02-18T03:49:03.399Z,99.90
2019-02-18T03:51:31.830Z,99.90
2019-02-18T03:54:00.539Z,99.90
2019-02-18T03:56:29.208Z,99.90
2019-02-18T03:58:57.646Z,99.90
2019-02-18T04:01:26.056Z,99.90
2019-02-18T04:03:54.492Z,99.90
2019-02-18T04:06:22.909Z,99.90
2019-02-18T04:08:51.340Z,99.90
2019-02-18T04:11:19.775Z,99.90
2019-02-18T04:13:48.462Z,99.90
2019-02-18T04:16:16.875Z,99.90
2019-02-18T04:18:45.311Z,99.90
2019-02-18T04:21:13.732Z,99.90
2019-02-18T04:23:42.217Z,99.90
2019-02-18T04:26:10.693Z,99.90
2019-02-18T04:28:39.143Z,99.90
2019-02-18T04:31:07.992Z,99.90
2019-02-18T04:33:36.422Z,99.90
2019-02-18T04:36:04.847Z,99.90
2019-02-18T04:38:33.569Z,99.90
2019-02-18T04:41:02.646Z,99.90
2019-02-18T04:43:31.057Z,99.90
2019-02-18T04:45:59.494Z,99.90
2019-02-18T04:48:27.920Z,99.90
2019-02-18T04:50:56.719Z,99.90
2019-02-18T04:53:25.217Z,99.90
2019-02-18T04:55:53.656Z,99.90
2019-02-18T04:58:22.079Z,99.90
2019-02-18T05:00:50.514Z,99.90
2019-02-18T05:03:18.949Z,99.90
2019-02-18T05:05:47.381Z,99.90
2019-02-18T05:08:15.795Z,99.90
2019-02-18T05:10:44.244Z,99.90
2019-02-18T05:13:12.670Z,99.90
2019-02-18T05:15:41.170Z,99.90
2019-02-18T05:18:09.591Z,99.90
2019-02-18T05:20:38.428Z,99.90
2019-02-18T05:23:07.259Z,99.90
2019-02-18T05:25:35.663Z,99.90
2019-02-18T05:28:04.118Z,99.90
2019-02-18T05:30:32.554Z,99.90
2019-02-18T05:33:00.965Z,99.90
2019-02-18T05:35:29.413Z,99.90
2019-02-18T05:37:57.855Z,99.90
2019-02-18T05:40:26.293Z,99.90
2019-02-18T05:42:54.723Z,99.90
2019-02-18T05:45:23.181Z,99.90
2019-02-18T05:47:51.601Z,99.90
2019-02-18T05:50:20.038Z,99.90
2019-02-18T05:52:48.457Z,99.90
2019-02-18T05:55:16.895Z,99.90
2019-02-18T05:57:45.329Z,99.90
2019-02-18T06:00:14.525Z,99.90
2019-02-18T06:02:43.851Z,99.90
2019-02-18T06:05:13.805Z,99.90
2019-02-18T06:07:42.467Z,99.90
2019-02-18T06:10:10.972Z,99.90
2019-02-18T06:12:39.631Z,99.90
2019-02-18T06:15:09.722Z,99.90
2019-02-18T06:17:38.132Z,99.90
2019-02-18T06:20:08.594Z,99.90
2019-02-18T06:22:38.571Z,99.90
2019-02-18T06:25:07.677Z,99.90
2019-02-18T06:27:36.183Z,99.90
2019-02-18T06:30:05.942Z,99.90
2019-02-18T06:32:34.384Z,99.90
2019-02-18T06:35:02.814Z,99.90
2019-02-18T06:37:31.260Z,99.90
2019-02-18T06:39:59.677Z,99.90
2019-02-18T06:42:28.145Z,99.90
2019-02-18T06:44:58.190Z,99.90
2019-02-18T06:47:26.712Z,99.90
2019-02-18T06:49:55.375Z,99.90
2019-02-18T06:52:23.915Z,99.90
2019-02-18T06:54:52.336Z,99.90
2019-02-18T06:57:22.409Z,99.90
2019-02-18T06:59:52.196Z,99.90
2019-02-18T07:02:31.027Z,99.90
2019-02-18T07:05:01.096Z,99.90
2019-02-18T07:07:31.178Z,99.90
2019-02-18T07:10:04.043Z,99.90
2019-02-18T07:12:34.155Z,99.90
2019-02-18T07:15:02.693Z,99.90
2019-02-18T07:17:31.124Z,99.90
2019-02-18T07:19:59.552Z,99.90
2019-02-18T07:22:28.059Z,99.90
2019-02-18T07:24:56.476Z,99.90
2019-02-18T07:27:24.994Z,99.90
2019-02-18T07:29:53.432Z,99.90
2019-02-18T07:32:21.885Z,99.90
2019-02-18T07:34:50.315Z,99.90
2019-02-18T07:37:18.736Z,99.90
2019-02-18T07:39:47.183Z,99.90
2019-02-18T07:42:15.611Z,99.90
2019-02-18T07:44:44.067Z,99.90
2019-02-18T07:47:12.490Z,99.90
2019-02-18T07:49:40.927Z,99.90
2019-02-18T07:52:09.410Z,99.90
2019-02-18T07:54:37.840Z,99.90
2019-02-18T07:57:06.268Z,99.90
2019-02-18T07:59:34.724Z,99.90
2019-02-18T08:02:03.143Z,99.90
2019-02-18T08:04:32.182Z,99.90
2019-02-18T08:07:02.532Z,99.90
2019-02-18T08:09:30.969Z,99.90
2019-02-18T08:11:59.384Z,99.90
2019-02-18T08:14:27.841Z,99.90
2019-02-18T08:16:56.261Z,99.90
2019-02-18T08:19:24.696Z,99.90
2019-02-18T08:21:53.102Z,99.90
2019-02-18T08:24:21.528Z,99.90
2019-02-18T08:26:49.945Z,99.90
2019-02-18T08:29:18.367Z,99.90
2019-02-18T08:31:46.788Z,99.90
2019-02-18T08:34:15.239Z,99.90
2019-02-18T08:36:43.915Z,99.90
2019-02-18T08:39:12.631Z,99.90
2019-02-18T08:41:41.082Z,99.90
2019-02-18T08:44:09.557Z,99.90
2019-02-18T08:46:37.984Z,99.90
2019-02-18T08:49:06.398Z,99.90
2019-02-18T08:51:34.839Z,99.90
2019-02-18T08:54:03.543Z,99.90
2019-02-18T08:56:32.035Z,99.90
2019-02-18T08:59:00.533Z,99.90
2019-02-18T09:01:28.951Z,99.90
2019-02-18T09:03:57.355Z,99.90
2019-02-18T09:06:25.804Z,99.90
2019-02-18T09:08:54.212Z,99.90
2019-02-18T09:11:22.635Z,99.90
2019-02-18T09:13:51.073Z,99.90
2019-02-18T09:16:19.516Z,99.90
2019-02-18T09:18:47.954Z,99.90
2019-02-18T09:21:16.387Z,99.90
2019-02-18T09:23:46.474Z,99.90
2019-02-18T09:26:16.464Z,99.90
2019-02-18T09:28:44.885Z,99.90
2019-02-18T09:31:13.323Z,99.90
2019-02-18T09:33:41.747Z,99.90
2019-02-18T09:36:10.171Z,99.90
2019-02-18T09:38:38.594Z,99.90
2019-02-18T09:41:07.039Z,99.90
2019-02-18T09:43:35.704Z,99.90
2019-02-18T09:46:04.219Z,99.90
2019-02-18T09:48:32.667Z,99.90
2019-02-18T09:51:01.074Z,99.90
2019-02-18T09:53:29.512Z,99.90
2019-02-18T09:55:57.936Z,99.90
2019-02-18T09:58:26.383Z,99.90
2019-02-18T10:00:54.863Z,99.90
2019-02-18T10:03:31.759Z,99.90
2019-02-18T10:05:53.476Z,99.90
2019-02-18T10:08:21.940Z,99.90
2019-02-18T10:10:55.724Z,99.90
2019-02-18T10:13:20.516Z,99.90
2019-02-18T10:15:49.008Z,99.90
2019-02-18T10:18:17.434Z,99.90
2019-02-18T10:20:46.107Z,99.90
2019-02-18T10:23:14.557Z,99.90
2019-02-18T10:25:42.952Z,99.90
2019-02-18T10:28:11.380Z,99.90
2019-02-18T10:30:39.804Z,99.90
2019-02-18T10:33:08.300Z,99.90
2019-02-18T10:35:36.716Z,99.90
2019-02-18T10:38:05.156Z,99.90
2019-02-18T10:40:33.567Z,99.90
2019-02-18T10:43:02.011Z,99.90
2019-02-18T10:45:30.424Z,99.90
2019-02-18T10:47:58.844Z,99.90
2019-02-18T10:50:27.302Z,99.90
2019-02-18T10:52:55.776Z,99.90
2019-02-18T10:55:24.199Z,99.90
2019-02-18T10:57:52.615Z,99.90
2019-02-18T11:00:21.046Z,99.90
2019-02-18T11:02:49.479Z,99.90
2019-02-18T11:05:17.920Z,99.90
2019-02-18T11:07:46.362Z,99.90
2019-02-18T11:10:17.944Z,99.90
2019-02-18T11:12:47.662Z,99.90
2019-02-18T11:15:16.270Z,99.90
2019-02-18T11:17:45.082Z,99.90
2019-02-18T11:20:14.341Z,99.90
2019-02-18T11:22:42.748Z,99.90
2019-02-18T11:25:12.424Z,99.90
2019-02-18T11:27:40.921Z,99.90
2019-02-18T11:30:17.080Z,99.90
2019-02-18T11:32:45.577Z,99.90
2019-02-18T11:35:14.131Z,99.90
2019-02-18T11:37:42.560Z,99.90
2019-02-18T11:40:13.890Z,99.90
2019-02-18T11:42:42.299Z,99.90
2019-02-18T11:45:13.025Z,99.90
2019-02-18T11:47:41.471Z,99.90
2019-02-18T11:50:16.108Z,99.90
2019-02-18T11:52:44.521Z,99.90
2019-02-18T11:55:13.584Z,99.90
2019-02-18T11:57:42.402Z,99.90
2019-02-18T12:00:15.521Z,99.90
2019-02-18T12:02:44.016Z,99.90
2019-02-18T12:05:12.197Z,99.90
2019-02-18T12:07:40.699Z,99.90
2019-02-18T12:10:13.008Z,99.90
2019-02-18T12:12:41.846Z,99.90
2019-02-18T12:15:12.412Z,99.90
2019-02-18T12:17:41.066Z,99.90
2019-02-18T12:20:15.521Z,99.90
2019-02-18T12:22:44.144Z,99.90
2019-02-18T12:25:13.330Z,99.90
2019-02-18T12:27:43.103Z,99.90
2019-02-18T12:30:16.108Z,99.90
2019-02-18T12:32:45.772Z,99.90
2019-02-18T12:35:30.214Z,99.90
2019-02-18T12:37:55.458Z,99.90
2019-02-18T12:40:20.452Z,99.90
2019-02-18T12:42:48.863Z,99.90
2019-02-18T12:45:17.295Z,99.90
2019-02-18T12:47:50.573Z,99.90
2019-02-18T12:50:19.005Z,99.90
2019-02-18T12:52:47.500Z,99.90
2019-02-18T12:55:16.320Z,99.90
2019-02-18T12:57:44.995Z,99.90
2019-02-18T13:00:14.979Z,99.90
2019-02-18T13:02:45.041Z,99.90
2019-02-18T13:05:13.903Z,99.90
2019-02-18T13:07:42.475Z,99.90
2019-02-18T13:10:11.635Z,99.90
2019-02-18T13:12:40.448Z,99.90
2019-02-18T13:15:16.328Z,99.90
2019-02-18T13:17:44.815Z,99.90
2019-02-18T13:20:13.393Z,98.00
2019-02-18T13:22:41.823Z,96.90
2019-02-18T13:25:32.082Z,96.50
2019-02-18T13:28:12.943Z,95.60
2019-02-18T13:30:53.909Z,94.20
2019-02-18T13:36:24.607Z,94.20
2019-02-18T13:41:50.254Z,92.00
2019-02-18T13:44:30.652Z,91.20
2019-02-18T13:47:11.729Z,90.50
2019-02-18T13:49:52.908Z,87.70
2019-02-18T13:52:37.178Z,71.50
2019-02-18T13:55:17.423Z,69.00
2019-02-18T13:57:57.736Z,67.50
2019-02-18T14:00:38.673Z,64.80
2019-02-18T14:03:19.479Z,68.40
2019-02-18T14:05:59.769Z,64.90
2019-02-18T14:08:40.696Z,64.20
2019-02-18T14:11:21.851Z,67.10
2019-02-18T14:14:02.928Z,65.40
2019-02-18T14:16:44.016Z,65.40
2019-02-18T14:19:24.804Z,66.70
2019-02-18T14:22:07.615Z,68.10
2019-02-18T14:24:47.931Z,67.00
2019-02-18T14:27:29.006Z,66.10
2019-02-18T14:29:57.496Z,66.50
2019-02-18T14:32:45.345Z,65.20
2019-02-18T14:35:33.360Z,66.30
2019-02-18T14:38:21.407Z,66.00
2019-02-18T14:41:10.185Z,63.40
2019-02-18T14:43:38.844Z,66.00
2019-02-18T14:46:07.741Z,65.50
2019-02-18T14:48:55.535Z,66.40
2019-02-18T14:51:43.315Z,65.00
2019-02-18T14:54:31.129Z,65.40
2019-02-18T14:57:18.933Z,64.80
2019-02-18T15:00:27.428Z,64.20
2019-02-18T15:03:15.210Z,64.90
2019-02-18T15:06:03.032Z,64.90
2019-02-18T15:08:50.806Z,64.50
2019-02-18T15:11:38.632Z,64.20
2019-02-18T15:14:26.421Z,62.80
2019-02-18T15:17:15.921Z,65.10
2019-02-18T15:20:04.259Z,64.70
2019-02-18T15:22:52.039Z,64.80
2019-02-18T15:25:39.801Z,64.10
2019-02-18T15:28:08.314Z,62.70
2019-02-18T15:30:56.153Z,60.80
2019-02-18T15:33:43.923Z,59.30
2019-02-18T15:36:31.673Z,59.60
2019-02-18T15:39:19.596Z,59.90
2019-02-18T15:42:07.363Z,61.20
2019-02-18T15:44:55.144Z,57.60
2019-02-18T15:47:42.922Z,58.90
2019-02-18T15:50:31.095Z,56.20
2019-02-18T15:53:18.924Z,56.70
2019-02-18T15:55:47.339Z,55.10
2019-02-18T15:58:35.282Z,56.30
2019-02-18T16:01:23.055Z,55.70
2019-02-18T16:04:10.828Z,56.00
2019-02-18T16:06:58.588Z,54.60
2019-02-18T16:09:46.374Z,54.70
2019-02-18T16:12:34.440Z,54.30
2019-02-18T16:15:22.222Z,49.70
2019-02-18T16:18:10.048Z,49.70
2019-02-18T16:20:57.823Z,49.70
2019-02-18T16:23:45.769Z,49.40
2019-02-18T16:26:33.540Z,49.80
2019-02-18T16:29:14.496Z,48.60
2019-02-18T16:31:55.416Z,49.00
2019-02-18T16:34:36.399Z,49.40
2019-02-18T16:37:17.437Z,49.40
2019-02-18T16:39:59.152Z,49.70
2019-02-18T16:45:31.603Z,50.30
2019-02-18T16:48:19.740Z,50.90
2019-02-18T16:54:14.491Z,52.30
2019-02-18T16:57:03.989Z,52.40
2019-02-18T16:59:51.748Z,53.10
2019-02-18T17:02:58.831Z,54.00
2019-02-18T17:05:46.645Z,55.20
2019-02-18T17:11:25.577Z,56.30
2019-02-18T17:14:15.068Z,57.10
2019-02-18T17:17:02.819Z,58.00
2019-02-18T17:19:50.619Z,59.30
2019-02-18T17:22:19.279Z,61.30
2019-02-18T17:25:08.600Z,61.70
2019-02-18T17:27:49.756Z,64.20
2019-02-18T17:30:30.671Z,67.10
2019-02-18T17:35:59.483Z,71.10
2019-02-18T17:38:40.063Z,74.00
2019-02-18T17:41:21.248Z,75.50
2019-02-18T17:44:02.158Z,81.60
2019-02-18T17:46:43.290Z,86.70
2019-02-18T17:52:10.569Z,92.40
2019-02-18T17:54:51.362Z,93.50
2019-02-18T17:57:32.011Z,95.70
2019-02-18T18:00:13.153Z,99.90
2019-02-18T18:02:41.638Z,99.90
2019-02-18T18:05:29.488Z,99.90
2019-02-18T18:08:17.616Z,99.90
2019-02-18T18:11:05.392Z,99.90
2019-02-18T18:13:53.159Z,99.90
2019-02-18T18:16:40.968Z,99.90
2019-02-18T18:19:28.823Z,99.90
2019-02-18T18:22:16.579Z,99.90
2019-02-18T18:25:05.414Z,99.90
2019-02-18T18:27:46.660Z,99.90
2019-02-18T18:30:31.233Z,99.90
2019-02-18T18:33:12.338Z,99.90
2019-02-18T18:35:53.214Z,99.90
2019-02-18T18:38:34.061Z,99.90
2019-02-18T18:41:14.896Z,99.90
2019-02-18T18:43:56.126Z,99.90
2019-02-18T18:46:37.121Z,99.90
2019-02-18T18:49:17.922Z,99.90
2019-02-18T18:54:55.276Z,99.90
2019-02-18T18:57:37.345Z,99.90
2019-02-18T19:00:20.263Z,99.90
2019-02-18T19:03:05.270Z,99.90
2019-02-18T19:05:47.387Z,99.90
2019-02-18T19:08:16.797Z,99.90
2019-02-18T19:11:04.935Z,99.90
2019-02-18T19:13:52.710Z,99.90
2019-02-18T19:19:18.495Z,99.90
2019-02-18T19:25:01.830Z,99.90
2019-02-18T19:27:30.298Z,99.90
2019-02-18T19:30:37.438Z,99.90
2019-02-18T19:33:25.282Z,99.90
2019-02-18T19:35:53.747Z,99.90
2019-02-18T19:38:41.541Z,99.90
2019-02-18T19:44:19.878Z,99.90
2019-02-18T20:04:03.067Z,99.90
2019-02-18T20:06:44.096Z,99.90
2019-02-18T20:09:24.720Z,99.90
2019-02-18T20:17:43.841Z,99.90
2019-02-18T20:20:24.869Z,99.90
2019-02-18T20:23:05.661Z,99.90
2019-02-18T20:25:46.648Z,99.90
2019-02-18T20:31:23.495Z,99.90
2019-02-18T20:34:03.973Z,99.90
2019-02-18T20:36:45.097Z,99.90
2019-02-18T20:39:13.812Z,99.90
2019-02-18T20:42:01.577Z,99.90
2019-02-18T20:44:42.603Z,99.90
2019-02-18T20:47:23.886Z,99.90
2019-02-18T20:49:52.335Z,99.90
2019-02-18T20:52:40.162Z,99.90
2019-02-18T20:55:28.010Z,99.90
2019-02-18T20:58:15.775Z,99.90
2019-02-18T21:01:03.553Z,99.90
2019-02-18T21:03:51.312Z,99.90
2019-02-18T21:06:39.101Z,99.90
2019-02-18T21:09:26.865Z,99.90
2019-02-18T21:11:55.757Z,99.90
2019-02-18T21:14:24.251Z,99.90
2019-02-18T21:16:52.683Z,99.90
2019-02-18T21:19:21.490Z,99.90
2019-02-18T21:22:09.391Z,99.90
2019-02-18T21:25:11.105Z,99.90
2019-02-18T21:27:46.648Z,99.90
2019-02-18T21:30:34.456Z,99.90
2019-02-18T21:33:22.239Z,99.90
2019-02-18T21:36:10.015Z,99.90
2019-02-18T21:38:57.852Z,99.90
2019-02-18T21:41:26.484Z,99.90
2019-02-18T21:44:14.240Z,99.90
2019-02-18T21:46:55.466Z,99.90
2019-02-18T21:49:23.888Z,99.90
2019-02-18T21:55:02.436Z,99.90
2019-02-18T21:57:50.276Z,99.90
2019-02-18T22:00:38.057Z,99.90
2019-02-18T22:03:06.482Z,99.90
2019-02-18T22:05:54.247Z,99.90
2019-02-18T22:08:42.015Z,99.90
2019-02-18T22:11:29.776Z,99.90
2019-02-18T22:14:17.726Z,99.90
2019-02-18T22:17:07.326Z,99.90
2019-02-18T22:19:55.118Z,99.90
2019-02-18T22:22:42.913Z,99.90
2019-02-18T22:25:30.688Z,99.90
2019-02-18T22:28:11.157Z,99.90
2019-02-18T22:30:51.789Z,99.90
2019-02-18T22:33:32.703Z,99.90
2019-02-18T22:36:13.188Z,99.90
2019-02-18T22:38:54.063Z,99.90
2019-02-18T22:41:34.980Z,99.90
2019-02-18T22:46:47.545Z,99.90
2019-02-18T22:49:54.757Z,99.90
2019-02-18T22:52:42.548Z,99.90
2019-02-18T22:55:30.328Z,99.90
2019-02-18T22:58:18.349Z,99.90
2019-02-18T23:01:09.020Z,99.90
2019-02-18T23:03:57.313Z,99.90
2019-02-18T23:06:46.668Z,99.90
2019-02-18T23:12:23.505Z,99.90
2019-02-18T23:15:11.308Z,99.90
2019-02-18T23:17:59.431Z,99.90
2019-02-18T23:20:47.213Z,99.90
2019-02-18T23:23:34.977Z,99.90
2019-02-18T23:26:22.864Z,99.90
2019-02-18T23:31:46.612Z,99.90
2019-02-18T23:37:14.120Z,99.90
2019-02-18T23:39:55.452Z,99.90
2019-02-18T23:42:36.359Z,99.90
2019-02-18T23:48:06.917Z,99.90
2019-02-18T23:50:48.214Z,99.90
2019-02-18T23:53:29.493Z,99.90
2019-02-18T23:59:02.201Z,99.90
